createdAt,value
2018-12-14T00:00:47.271Z,102229.41
2018-12-14T00:06:00.831Z,102229.87
2018-12-14T00:11:14.533Z,102233.98
2018-12-14T00:16:31.280Z,102240.06
2018-12-14T00:21:39.857Z,102242.80
2018-12-14T00:26:50.574Z,102243.86
2018-12-14T00:32:01.220Z,102233.87
2018-12-14T00:37:10.188Z,102233.87
2018-12-14T00:42:22.787Z,102243.18
2018-12-14T00:47:34.527Z,102243.01
2018-12-14T00:53:08.014Z,102246.49
2018-12-14T00:58:20.624Z,102256.23
2018-12-14T01:03:28.528Z,102261.30
2018-12-14T01:08:36.829Z,102269.83
2018-12-14T01:13:48.628Z,102267.63
2018-12-14T01:19:02.313Z,102263.63
2018-12-14T01:24:16.064Z,102260.86
2018-12-14T01:29:28.806Z,102268.13
2018-12-14T01:34:39.656Z,102264.11
2018-12-14T01:39:51.460Z,102274.35
2018-12-14T01:45:01.531Z,102270.47
2018-12-14T01:50:13.875Z,102266.12
2018-12-14T01:55:27.521Z,102257.94
2018-12-14T02:00:36.689Z,102252.70
2018-12-14T02:05:45.952Z,102246.57
2018-12-14T02:10:55.064Z,102239.78
2018-12-14T02:16:02.870Z,102239.78
2018-12-14T02:21:15.175Z,102241.93
2018-12-14T02:26:28.076Z,102243.36
2018-12-14T02:31:39.457Z,102243.31
2018-12-14T02:36:52.935Z,102245.80
2018-12-14T02:42:07.454Z,102246.23
2018-12-14T02:47:20.011Z,102238.97
2018-12-14T02:52:31.845Z,102230.45
2018-12-14T02:57:45.429Z,102231.45
2018-12-14T03:02:57.464Z,102224.05
2018-12-14T03:08:10.184Z,102228.36
2018-12-14T03:13:17.799Z,102226.63
2018-12-14T03:18:26.770Z,102232.62
2018-12-14T03:23:41.395Z,102227.02
2018-12-14T03:28:51.505Z,102234.04
2018-12-14T03:34:03.437Z,102232.56
2018-12-14T03:39:13.800Z,102236.44
2018-12-14T03:44:31.958Z,102242.51
2018-12-14T03:49:43.828Z,102244.31
2018-12-14T03:54:54.161Z,102247.15
2018-12-14T04:00:06.036Z,102245.99
2018-12-14T04:05:16.040Z,102249.73
2018-12-14T04:10:29.287Z,102245.80
2018-12-14T04:15:37.070Z,102247.48
2018-12-14T04:20:50.567Z,102246.77
2018-12-14T04:26:06.044Z,102242.56
2018-12-14T04:31:17.948Z,102241.64
2018-12-14T04:36:28.064Z,102244.37
2018-12-14T04:41:40.845Z,102243.18
2018-12-14T04:46:51.681Z,102253.69
2018-12-14T04:52:01.063Z,102244.95
2018-12-14T05:03:28.045Z,102244.76
2018-12-14T05:08:38.667Z,102251.31
2018-12-14T05:13:50.441Z,102244.76
2018-12-14T05:18:58.772Z,102246.09
2018-12-14T05:24:08.261Z,102246.77
2018-12-14T05:29:16.049Z,102244.52
2018-12-14T05:34:30.445Z,102253.16
2018-12-14T05:39:40.367Z,102252.64
2018-12-14T05:44:57.485Z,102253.56
2018-12-14T05:50:06.377Z,102259.53
2018-12-14T05:55:16.250Z,102264.69
2018-12-14T06:00:25.697Z,102261.44
2018-12-14T06:05:35.752Z,102268.17
2018-12-14T06:10:46.832Z,102266.55
2018-12-14T06:15:56.743Z,102276.34
2018-12-14T06:21:07.427Z,102278.12
2018-12-14T06:26:16.045Z,102280.30
2018-12-14T06:31:31.589Z,102287.95
2018-12-14T06:36:39.802Z,102289.19
2018-12-14T06:41:47.188Z,102296.76
2018-12-14T06:46:54.572Z,102304.73
2018-12-14T06:52:07.308Z,102304.67
2018-12-14T06:57:27.889Z,102310.75
2018-12-14T07:02:41.511Z,102321.89
2018-12-14T07:07:48.316Z,102324.73
2018-12-14T07:13:01.800Z,102324.25
2018-12-14T07:18:12.742Z,102332.38
2018-12-14T07:23:21.776Z,102338.98
2018-12-14T07:28:31.097Z,102353.39
2018-12-14T07:33:43.692Z,102353.39
2018-12-14T07:38:54.722Z,102365.48
2018-12-14T07:44:05.512Z,102360.38
2018-12-14T07:49:18.147Z,102370.00
2018-12-14T07:54:30.825Z,102375.25
2018-12-14T07:59:40.022Z,102383.59
2018-12-14T08:04:46.040Z,102386.11
2018-12-14T08:09:57.391Z,102387.63
2018-12-14T08:15:11.407Z,102394.50
2018-12-14T08:20:21.863Z,102393.69
2018-12-14T08:25:31.779Z,102396.88
2018-12-14T08:30:44.325Z,102404.19
2018-12-14T08:35:58.744Z,102409.52
2018-12-14T08:41:07.532Z,102419.95
2018-12-14T08:46:22.990Z,102423.54
2018-12-14T08:51:29.522Z,102422.63
2018-12-14T08:56:42.400Z,102423.67
2018-12-14T09:01:52.740Z,102421.18
2018-12-14T09:07:05.254Z,102427.26
2018-12-14T09:12:15.405Z,102432.48
2018-12-14T09:17:23.688Z,102430.33
2018-12-14T09:22:35.627Z,102436.24
2018-12-14T09:27:42.205Z,102431.55
2018-12-14T09:32:56.911Z,102433.06
2018-12-14T09:38:11.840Z,102437.38
2018-12-14T09:43:23.573Z,102441.14
2018-12-14T09:48:34.222Z,102438.56
2018-12-14T09:53:41.354Z,102436.31
2018-12-14T09:58:51.292Z,102433.15
2018-12-14T10:04:04.011Z,102433.48
2018-12-14T10:09:16.811Z,102437.94
2018-12-14T10:14:29.578Z,102441.60
2018-12-14T10:19:43.251Z,102437.25
2018-12-14T10:24:54.180Z,102422.34
2018-12-14T10:30:08.530Z,102428.27
2018-12-14T10:35:25.833Z,102414.34
2018-12-14T10:40:41.261Z,102408.95
2018-12-14T10:45:54.915Z,102407.19
2018-12-14T10:51:09.379Z,102394.09
2018-12-14T10:56:19.423Z,102393.39
2018-12-14T11:01:49.076Z,102392.53
2018-12-14T11:06:58.581Z,102390.59
2018-12-14T11:12:12.960Z,102394.07
2018-12-14T11:17:25.544Z,102387.59
2018-12-14T11:22:36.304Z,102382.78
2018-12-14T11:27:46.180Z,102373.98
2018-12-14T11:32:52.993Z,102370.84
2018-12-14T11:38:01.341Z,102382.47
2018-12-14T11:43:12.161Z,102376.66
2018-12-14T11:48:20.420Z,102379.35
2018-12-14T11:53:34.770Z,102374.83
2018-12-14T11:58:43.833Z,102379.28
2018-12-14T12:03:52.978Z,102378.75
2018-12-14T12:09:02.516Z,102381.36
2018-12-14T12:14:12.397Z,102384.62
2018-12-14T12:19:24.972Z,102375.93
2018-12-14T12:24:40.235Z,102379.11
2018-12-14T12:29:53.956Z,102382.20
2018-12-14T12:35:10.337Z,102384.31
2018-12-14T12:40:23.821Z,102384.31
2018-12-14T12:45:31.878Z,102382.63
2018-12-14T12:50:47.338Z,102382.72
2018-12-14T12:56:00.045Z,102382.30
2018-12-14T13:01:13.721Z,102384.16
2018-12-14T13:06:22.840Z,102380.25
2018-12-14T13:11:30.801Z,102385.00
2018-12-14T13:16:40.728Z,102387.27
2018-12-14T13:21:52.422Z,102385.84
2018-12-14T13:27:04.143Z,102380.64
2018-12-14T13:32:15.843Z,102393.78
2018-12-14T13:37:27.591Z,102395.27
2018-12-14T13:42:44.785Z,102395.80
2018-12-14T13:47:55.577Z,102395.21
2018-12-14T13:53:10.139Z,102402.30
2018-12-14T13:58:22.823Z,102408.12
2018-12-14T14:03:37.447Z,102407.30
2018-12-14T14:08:52.870Z,102407.20
2018-12-14T14:14:04.581Z,102407.13
2018-12-14T14:19:16.258Z,102419.69
2018-12-14T14:24:26.411Z,102420.77
2018-12-14T14:29:33.698Z,102429.28
2018-12-14T14:34:47.418Z,102441.42
2018-12-14T14:39:56.477Z,102439.26
2018-12-14T14:45:10.026Z,102435.70
2018-12-14T14:50:21.049Z,102447.00
2018-12-14T14:55:30.501Z,102453.08
2018-12-14T15:00:43.173Z,102450.99
2018-12-14T15:05:51.696Z,102465.55
2018-12-14T15:11:03.172Z,102464.05
2018-12-14T15:16:16.676Z,102462.45
2018-12-14T15:21:27.753Z,102472.95
2018-12-14T15:26:36.207Z,102469.33
2018-12-14T15:31:47.536Z,102474.31
2018-12-14T15:37:02.903Z,102473.45
2018-12-14T15:42:10.974Z,102480.86
2018-12-14T15:47:20.908Z,102473.98
2018-12-14T15:52:28.669Z,102480.46
2018-12-14T15:57:36.085Z,102483.63
2018-12-14T16:02:49.718Z,102496.84
2018-12-14T16:07:59.753Z,102495.83
2018-12-14T16:13:15.187Z,102502.92
2018-12-14T16:18:29.008Z,102502.23
2018-12-14T16:23:37.985Z,102504.87
2018-12-14T16:28:49.866Z,102502.69
2018-12-14T16:34:00.699Z,102505.28
2018-12-14T16:39:10.052Z,102511.59
2018-12-14T16:44:19.137Z,102512.17
2018-12-14T16:49:28.072Z,102510.08
2018-12-14T16:54:37.990Z,102514.77
2018-12-14T16:59:48.996Z,102524.52
2018-12-14T17:04:56.799Z,102523.55
2018-12-14T17:10:08.392Z,102531.94
2018-12-14T17:15:23.849Z,102533.84
2018-12-14T17:20:34.886Z,102536.50
2018-12-14T17:25:45.907Z,102532.88
2018-12-14T17:30:59.434Z,102529.44
2018-12-14T17:36:12.218Z,102541.77
2018-12-14T17:41:23.568Z,102545.92
2018-12-14T17:46:37.290Z,102545.75
2018-12-14T17:51:47.236Z,102537.06
2018-12-14T17:57:04.454Z,102537.06
2018-12-14T18:02:16.233Z,102543.19
2018-12-14T18:07:27.913Z,102555.67
2018-12-14T18:12:39.952Z,102544.32
2018-12-14T18:17:48.430Z,102549.19
2018-12-14T18:22:59.849Z,102553.77
2018-12-14T18:28:13.483Z,102547.34
2018-12-14T18:33:21.725Z,102549.61
2018-12-14T18:38:30.663Z,102555.34
2018-12-14T18:43:39.310Z,102554.60
2018-12-14T18:48:50.981Z,102560.92
2018-12-14T18:54:03.566Z,102564.80
2018-12-14T18:59:15.783Z,102568.06
2018-12-14T19:04:26.571Z,102573.20
2018-12-14T19:09:37.914Z,102570.14
2018-12-14T19:14:51.564Z,102581.24
2018-12-14T19:20:00.584Z,102584.36
2018-12-14T19:25:11.203Z,102583.48
2018-12-14T19:30:23.912Z,102585.13
2018-12-14T19:35:35.614Z,102589.28
2018-12-14T19:40:47.684Z,102594.80
2018-12-14T19:45:56.581Z,102594.32
2018-12-14T19:51:04.342Z,102591.83
2018-12-14T19:56:16.999Z,102587.64
2018-12-14T20:01:27.053Z,102578.45
2018-12-14T20:06:36.434Z,102582.27
2018-12-14T20:11:49.958Z,102570.03
2018-12-14T20:17:03.492Z,102567.55
2018-12-14T20:22:13.008Z,102575.38
2018-12-14T20:27:24.297Z,102571.11
2018-12-14T20:32:33.259Z,102566.09
2018-12-14T20:37:42.358Z,102570.55
2018-12-14T20:42:57.944Z,102564.09
2018-12-14T20:48:08.742Z,102568.98
2018-12-14T20:53:20.412Z,102569.95
2018-12-14T20:58:31.401Z,102568.91
2018-12-14T21:03:41.262Z,102575.39
2018-12-14T21:08:51.972Z,102560.37
2018-12-14T21:14:03.747Z,102565.78
2018-12-14T21:19:12.670Z,102560.39
2018-12-14T21:24:23.905Z,102553.47
2018-12-14T21:29:36.398Z,102553.79
2018-12-14T21:34:48.262Z,102551.61
2018-12-14T21:39:55.981Z,102555.00
2018-12-14T21:45:09.508Z,102537.36
2018-12-14T21:50:21.226Z,102539.95
2018-12-14T21:55:32.900Z,102538.70
2018-12-14T22:00:42.083Z,102537.84
2018-12-14T22:05:56.526Z,102536.89
2018-12-14T22:11:05.596Z,102539.52
2018-12-14T22:16:14.048Z,102533.35
2018-12-14T22:21:25.753Z,102534.61
2018-12-14T22:26:35.190Z,102530.30
2018-12-14T22:31:42.491Z,102531.03
2018-12-14T22:36:52.256Z,102532.14
2018-12-14T22:42:03.142Z,102538.36
2018-12-14T22:47:14.028Z,102540.39
2018-12-14T22:52:25.668Z,102544.36
2018-12-14T22:57:36.479Z,102545.35
2018-12-14T23:02:50.182Z,102553.59
2018-12-14T23:07:58.310Z,102553.51
2018-12-14T23:13:09.991Z,102560.45
2018-12-14T23:18:21.097Z,102572.66
2018-12-14T23:23:33.608Z,102572.04
2018-12-14T23:28:44.293Z,102575.00
2018-12-14T23:33:55.986Z,102581.53
2018-12-14T23:39:06.614Z,102579.55
2018-12-14T23:44:18.330Z,102572.86
2018-12-14T23:49:29.202Z,102588.00
2018-12-14T23:54:40.094Z,102594.75
2018-12-14T23:59:52.711Z,102605.53
